Time;durP1;ratioP1;P1;durP2;ratioP2;P2;SDS_P1;SDS_P2;PMS_P1;PMS_P2;Temp;Humidity;BMP_temperature;BMP_pressure;BME280_temperature;BME280_humidity;BME280_pressure;Samples;Min_cycle;Max_cycle;Signal;HPM_P1;HPM_P2
2022/04/16 00:00:56;;;;;;;36.75;32.92;;;12.10;70.20;;;;;;4889537;29;20510;-84
2022/04/16 00:03:24;;;;;;;37.90;33.88;;;12.10;70.20;;;;;;4889652;29;20048;-84
2022/04/16 00:05:53;;;;;;;38.60;34.60;;;12.00;70.20;;;;;;4887280;29;20048;-83
2022/04/16 00:08:21;;;;;;;39.47;34.60;;;12.00;70.20;;;;;;4885172;29;20056;-83
2022/04/16 00:10:48;;;;;;;39.55;35.38;;;11.90;70.20;;;;;;4880911;29;20053;-84
2022/04/16 00:13:17;;;;;;;39.88;35.67;;;11.90;70.20;;;;;;4889007;29;20083;-86
2022/04/16 00:15:46;;;;;;;39.13;35.03;;;11.90;70.20;;;;;;4889370;29;20088;-84
2022/04/16 00:18:13;;;;;;;39.00;34.47;;;11.90;70.20;;;;;;4889499;29;20052;-86
2022/04/16 00:20:44;;;;;;;40.83;34.53;;;11.90;70.30;;;;;;4885882;29;20134;-85
2022/04/16 00:23:12;;;;;;;40.20;35.97;;;11.80;70.30;;;;;;4885164;29;20053;-85
2022/04/16 00:25:41;;;;;;;41.08;35.55;;;11.80;70.30;;;;;;4888861;29;20091;-85
2022/04/16 00:28:08;;;;;;;40.42;36.30;;;11.80;70.30;;;;;;4889014;29;20132;-85
2022/04/16 00:30:37;;;;;;;40.30;35.92;;;11.70;70.30;;;;;;4889194;29;20057;-85
2022/04/16 00:33:10;;;;;;;41.45;36.88;;;11.70;70.40;;;;;;4888351;29;20053;-84
2022/04/16 00:35:42;;;;;;;40.50;36.20;;;11.60;70.40;;;;;;4884856;29;20100;-84
2022/04/16 00:38:09;;;;;;;42.00;37.55;;;11.60;70.40;;;;;;4896546;29;20107;-84
2022/04/16 00:40:36;;;;;;;40.53;36.22;;;11.60;70.40;;;;;;4898642;29;20053;-84
2022/04/16 00:43:05;;;;;;;41.80;37.20;;;11.50;70.50;;;;;;4892540;29;20060;-83
2022/04/16 00:45:32;;;;;;;41.85;37.42;;;11.50;70.50;;;;;;4889023;29;20053;-83
2022/04/16 00:47:59;;;;;;;42.53;38.03;;;11.50;70.50;;;;;;4887401;29;20056;-84
2022/04/16 00:50:27;;;;;;;40.97;36.38;;;11.50;70.50;;;;;;4884392;29;20091;-84
2022/04/16 00:52:54;;;;;;;41.05;36.28;;;11.40;70.50;;;;;;4886609;29;20061;-83
2022/04/16 00:55:21;;;;;;;45.65;38.10;;;11.40;70.50;;;;;;4888525;29;20049;-84
2022/04/16 00:57:49;;;;;;;44.22;38.92;;;11.40;70.60;;;;;;4888656;29;20112;-83
2022/04/16 01:00:16;;;;;;;42.67;37.97;;;11.40;70.60;;;;;;4888574;29;20072;-84
2022/04/16 01:02:43;;;;;;;45.95;39.47;;;11.40;70.70;;;;;;4885056;29;20052;-83
2022/04/16 01:05:12;;;;;;;43.30;37.97;;;11.40;70.70;;;;;;4883491;29;20055;-83
2022/04/16 01:07:53;;;;;;;44.63;39.83;;;11.30;70.70;;;;;;4887984;29;20113;-84
2022/04/16 01:10:21;;;;;;;43.80;39.10;;;11.30;70.80;;;;;;4888182;29;20045;-84
2022/04/16 01:12:48;;;;;;;43.40;38.83;;;11.20;70.80;;;;;;4888215;29;20061;-83
2022/04/16 01:15:17;;;;;;;47.10;40.50;;;11.20;70.90;;;;;;4888381;29;20101;-84
2022/04/16 01:17:44;;;;;;;44.08;38.47;;;11.20;71.00;;;;;;4885007;29;20079;-85
2022/04/16 01:20:11;;;;;;;48.80;41.30;;;11.20;71.00;;;;;;4884044;29;20470;-85
2022/04/16 01:22:40;;;;;;;44.88;39.00;;;11.10;71.10;;;;;;4899347;29;20509;-85
2022/04/16 01:25:08;;;;;;;49.00;40.15;;;11.10;71.20;;;;;;4891141;29;20101;-84
2022/04/16 01:27:35;;;;;;;46.22;41.22;;;11.10;71.30;;;;;;4888004;29;20061;-84
2022/04/16 01:30:04;;;;;;;44.08;39.38;;;11.00;71.30;;;;;;4887132;29;20053;-84
2022/04/16 01:32:33;;;;;;;45.22;39.92;;;11.00;71.40;;;;;;4883572;29;20052;-85
2022/04/16 01:35:00;;;;;;;44.15;38.92;;;11.00;71.40;;;;;;4885142;29;20049;-85
2022/04/16 01:37:33;;;;;;;45.30;39.03;;;11.00;71.50;;;;;;4887991;29;20049;-84
2022/04/16 01:40:05;;;;;;;46.03;39.77;;;10.90;71.50;;;;;;4887690;29;20049;-85
2022/04/16 01:42:32;;;;;;;45.92;39.40;;;10.90;71.50;;;;;;4887844;29;20289;-85
2022/04/16 01:45:02;;;;;;;42.08;37.33;;;10.90;71.50;;;;;;4885225;29;20510;-85
2022/04/16 01:47:29;;;;;;;42.97;38.28;;;10.90;71.50;;;;;;4883370;29;20072;-85
2022/04/16 01:49:57;;;;;;;45.15;39.58;;;10.90;71.50;;;;;;4885300;29;20056;-85
2022/04/16 01:52:24;;;;;;;43.28;38.33;;;10.90;71.50;;;;;;4887624;29;20049;-84
2022/04/16 01:54:51;;;;;;;41.40;36.97;;;10.90;71.50;;;;;;4887195;29;20109;-85
2022/04/16 01:57:19;;;;;;;42.35;37.75;;;10.90;71.50;;;;;;4887820;29;20104;-85
2022/04/16 01:59:47;;;;;;;43.65;39.05;;;10.80;71.50;;;;;;4884481;29;20048;-84
2022/04/16 02:02:15;;;;;;;44.30;37.72;;;10.80;71.50;;;;;;4883231;29;20056;-86
2022/04/16 02:04:42;;;;;;;41.55;36.88;;;10.80;71.60;;;;;;4897768;29;20082;-85
2022/04/16 02:07:09;;;;;;;41.63;37.20;;;10.70;71.60;;;;;;4890330;29;20057;-85
2022/04/16 02:09:36;;;;;;;43.40;36.80;;;10.70;71.60;;;;;;4886623;29;20130;-85
2022/04/16 02:12:04;;;;;;;42.42;37.00;;;10.70;71.60;;;;;;4886114;29;20510;-85
2022/04/16 02:14:31;;;;;;;44.83;37.75;;;10.70;71.70;;;;;;4882877;29;20049;-84
2022/04/16 02:16:58;;;;;;;40.75;36.25;;;10.60;71.70;;;;;;4884680;29;20076;-84
2022/04/16 02:19:26;;;;;;;42.17;37.67;;;10.60;71.80;;;;;;4887185;29;20109;-84
2022/04/16 02:21:53;;;;;;;42.60;37.92;;;10.60;71.80;;;;;;4887153;29;20118;-84
2022/04/16 02:24:20;;;;;;;43.33;36.45;;;10.60;71.90;;;;;;4886792;29;20113;-84
2022/04/16 02:26:47;;;;;;;44.20;38.65;;;10.60;71.90;;;;;;4883965;29;20060;-84
2022/04/16 02:29:14;;;;;;;42.70;36.88;;;10.60;72.00;;;;;;4882868;29;20049;-86
2022/04/16 02:31:42;;;;;;;41.30;36.78;;;10.60;72.10;;;;;;4896926;29;20056;-85
2022/04/16 02:34:11;;;;;;;44.40;36.13;;;10.50;72.10;;;;;;4889973;29;20069;-85
2022/04/16 02:36:40;;;;;;;41.92;36.55;;;10.60;72.20;;;;;;4886922;29;20053;-85
2022/04/16 02:39:08;;;;;;;41.20;36.75;;;10.50;72.20;;;;;;4886135;29;20052;-85
2022/04/16 02:41:35;;;;;;;39.75;35.35;;;10.50;72.20;;;;;;4882360;29;20049;-85
2022/04/16 02:44:02;;;;;;;43.13;37.40;;;10.50;72.20;;;;;;4882550;29;20052;-84
2022/04/16 02:49:18;;;;;;;45.05;37.25;;;10.50;72.30;;;;;;4886642;29;20053;-84
2022/04/16 02:51:44;;;;;;;41.53;36.85;;;10.40;72.30;;;;;;4886189;29;20518;-85
2022/04/16 02:54:11;;;;;;;38.65;34.42;;;10.40;72.40;;;;;;4886928;29;20100;-84
2022/04/16 02:56:38;;;;;;;41.17;36.70;;;10.40;72.50;;;;;;4882750;29;20068;-86
2022/04/16 02:59:05;;;;;;;39.80;35.13;;;10.40;72.50;;;;;;4893993;29;20053;-86
2022/04/16 03:01:32;;;;;;;39.53;34.47;;;10.40;72.60;;;;;;4886512;29;20056;-85
2022/04/16 03:03:59;;;;;;;39.25;34.92;;;10.40;72.60;;;;;;4886434;29;20055;-84
2022/04/16 03:06:26;;;;;;;38.53;34.22;;;10.40;72.60;;;;;;4886090;29;20096;-84
2022/04/16 03:08:53;;;;;;;40.08;34.53;;;10.40;72.60;;;;;;4884194;29;20053;-84
2022/04/16 03:11:20;;;;;;;37.40;33.28;;;10.40;72.60;;;;;;4881969;29;20486;-84
2022/04/16 03:13:46;;;;;;;37.13;33.13;;;10.40;72.60;;;;;;4883922;29;20105;-85
2022/04/16 03:18:59;;;;;;;36.25;31.85;;;10.30;72.50;;;;;;4885855;29;20053;-85
2022/04/16 03:21:26;;;;;;;35.90;32.00;;;10.30;72.50;;;;;;4884478;29;20462;-85
2022/04/16 03:23:53;;;;;;;36.15;32.08;;;10.20;72.50;;;;;;4883791;29;20056;-84
2022/04/16 03:26:20;;;;;;;39.08;32.88;;;10.20;72.50;;;;;;4881913;29;20108;-85
2022/04/16 03:28:47;;;;;;;39.63;35.33;;;10.20;72.50;;;;;;4884953;29;20109;-84
2022/04/16 03:31:13;;;;;;;39.42;34.13;;;10.20;72.50;;;;;;4886168;29;20105;-84
2022/04/16 03:33:40;;;;;;;39.72;33.10;;;10.20;72.60;;;;;;4885998;29;20048;-83
2022/04/16 03:36:07;;;;;;;39.10;33.22;;;10.10;72.70;;;;;;4885337;29;20051;-86
2022/04/16 03:38:34;;;;;;;37.28;33.25;;;10.10;72.70;;;;;;4881588;29;20108;-85
2022/04/16 03:41:01;;;;;;;37.67;33.35;;;10.10;72.80;;;;;;4883007;29;20049;-84
2022/04/16 03:43:29;;;;;;;36.97;32.88;;;10.10;72.90;;;;;;4886054;29;20061;-84
2022/04/16 03:45:56;;;;;;;37.92;31.75;;;10.10;72.90;;;;;;4886071;29;20140;-83
2022/04/16 03:48:23;;;;;;;39.45;32.40;;;10.00;73.00;;;;;;4885947;29;20525;-86
2022/04/16 03:50:50;;;;;;;38.35;32.30;;;10.00;73.00;;;;;;4882819;29;20045;-84
2022/04/16 03:53:17;;;;;;;39.17;32.42;;;10.00;73.10;;;;;;4881568;29;20056;-85
2022/04/16 04:01:15;;;;;;;38.00;31.67;;;10.00;73.10;;;;;;4885795;29;20603;-84
2022/04/16 04:03:42;;;;;;;36.33;31.17;;;9.90;73.10;;;;;;4884558;29;20045;-84
2022/04/16 04:06:09;;;;;;;34.95;30.63;;;9.90;73.20;;;;;;4885232;29;20108;-84
2022/04/16 04:08:36;;;;;;;42.70;31.77;;;9.90;73.20;;;;;;4881405;29;20104;-84
2022/04/16 04:11:03;;;;;;;36.55;30.92;;;9.90;73.20;;;;;;4882823;29;20053;-85
2022/04/16 04:13:31;;;;;;;34.40;30.65;;;9.90;73.20;;;;;;4885489;29;20143;-84
2022/04/16 04:15:58;;;;;;;34.58;30.58;;;9.90;73.20;;;;;;4885844;29;20053;-84
2022/04/16 04:18:26;;;;;;;37.92;31.23;;;9.90;73.20;;;;;;4885416;29;20522;-84
2022/04/16 04:20:55;;;;;;;37.80;30.50;;;9.80;73.20;;;;;;4883526;29;20053;-84
2022/04/16 04:23:22;;;;;;;35.53;30.67;;;9.80;73.20;;;;;;4880410;29;20053;-84
2022/04/16 04:25:49;;;;;;;35.17;30.10;;;9.80;73.10;;;;;;4882299;29;20053;-84
2022/04/16 04:28:17;;;;;;;37.08;30.45;;;9.70;73.10;;;;;;4885703;29;20057;-84
2022/04/16 04:30:44;;;;;;;34.17;30.45;;;9.70;73.10;;;;;;4885931;29;20527;-84
2022/04/16 04:33:11;;;;;;;38.22;31.52;;;9.70;73.10;;;;;;4888771;29;20056;-85
2022/04/16 04:35:38;;;;;;;35.83;31.58;;;9.70;73.10;;;;;;4885008;29;20052;-84
2022/04/16 04:38:05;;;;;;;34.75;30.63;;;9.70;73.10;;;;;;4899267;29;20059;-83
2022/04/16 04:40:32;;;;;;;35.47;29.52;;;9.60;73.10;;;;;;4889203;29;20049;-85
2022/04/16 04:42:59;;;;;;;34.72;29.13;;;9.60;73.10;;;;;;4888719;29;20603;-85
2022/04/16 04:45:26;;;;;;;37.92;30.67;;;9.60;73.10;;;;;;4888912;29;20052;-85
2022/04/16 04:47:53;;;;;;;35.85;29.95;;;9.60;73.10;;;;;;4886219;29;20518;-85
2022/04/16 04:50:19;;;;;;;36.15;29.58;;;9.50;73.10;;;;;;4884483;29;20045;-84
2022/04/16 04:52:46;;;;;;;35.25;29.77;;;9.50;73.10;;;;;;4887742;29;20057;-84
2022/04/16 04:55:13;;;;;;;33.70;29.95;;;9.50;73.10;;;;;;4888864;29;20117;-84
2022/04/16 04:57:42;;;;;;;33.70;28.63;;;9.50;73.10;;;;;;4888785;29;20068;-84
2022/04/16 05:00:11;;;;;;;34.63;30.33;;;9.40;73.10;;;;;;4888315;29;20044;-84
2022/04/16 05:02:43;;;;;;;35.28;29.90;;;9.40;73.10;;;;;;4883973;29;20053;-84
2022/04/16 05:05:11;;;;;;;34.75;29.05;;;9.40;73.10;;;;;;4895073;29;20084;-84
2022/04/16 05:07:38;;;;;;;36.33;30.23;;;9.40;73.10;;;;;;4887987;29;20052;-84
2022/04/16 05:10:06;;;;;;;33.00;29.40;;;9.40;73.10;;;;;;4888471;29;20507;-83
2022/04/16 05:12:33;;;;;;;32.80;29.17;;;9.30;73.10;;;;;;4888180;29;20057;-84
2022/04/16 05:15:00;;;;;;;34.78;30.08;;;9.30;73.10;;;;;;4886903;29;20099;-84
2022/04/16 05:17:27;;;;;;;33.97;27.83;;;9.30;73.10;;;;;;4883692;29;20045;-85
2022/04/16 05:19:54;;;;;;;34.30;29.00;;;9.30;73.10;;;;;;4886314;29;20049;-85
2022/04/16 05:22:21;;;;;;;34.15;30.13;;;9.20;73.10;;;;;;4888134;29;20097;-85
2022/04/16 05:24:48;;;;;;;36.60;29.25;;;9.20;73.20;;;;;;4888221;29;20048;-84
2022/04/16 05:27:15;;;;;;;33.58;29.92;;;9.20;73.20;;;;;;4887210;29;20056;-84
2022/04/16 05:29:48;;;;;;;33.78;29.30;;;9.20;73.30;;;;;;4884575;29;20429;-83
2022/04/16 05:32:16;;;;;;;32.97;28.50;;;9.10;73.30;;;;;;4883579;29;20405;-83
2022/04/16 05:34:43;;;;;;;33.53;29.13;;;9.10;73.40;;;;;;4898309;29;20095;-86
2022/04/16 05:37:10;;;;;;;34.60;29.67;;;9.10;73.40;;;;;;4891070;29;20483;-85
2022/04/16 05:39:38;;;;;;;33.95;29.77;;;9.10;73.50;;;;;;4887895;29;20045;-85
2022/04/16 05:42:05;;;;;;;34.75;30.17;;;9.10;73.60;;;;;;4886731;29;20121;-84
2022/04/16 05:44:33;;;;;;;34.25;30.48;;;9.10;73.70;;;;;;4881862;29;20080;-85
2022/04/16 05:46:59;;;;;;;37.20;31.50;;;9.00;73.80;;;;;;4884701;29;20112;-85
2022/04/16 05:49:27;;;;;;;35.50;30.25;;;9.00;73.90;;;;;;4887818;29;20053;-84
2022/04/16 05:51:58;;;;;;;34.35;29.55;;;9.00;73.90;;;;;;4887690;29;20132;-84
2022/04/16 05:54:25;;;;;;;36.47;30.38;;;9.00;74.00;;;;;;4887664;29;20048;-84
2022/04/16 05:56:53;;;;;;;37.40;31.00;;;9.00;74.10;;;;;;4885267;29;20051;-84
2022/04/16 05:59:22;;;;;;;36.92;31.52;;;9.00;74.10;;;;;;4883171;29;20060;-84
2022/04/16 06:01:49;;;;;;;39.10;32.55;;;9.00;74.20;;;;;;4892253;29;20060;-84
2022/04/16 06:04:17;;;;;;;38.13;31.20;;;9.00;74.30;;;;;;4899564;29;20140;-84
2022/04/16 06:06:46;;;;;;;36.90;32.85;;;9.00;74.30;;;;;;4897477;29;20510;-84
2022/04/16 06:09:13;;;;;;;38.65;33.45;;;9.00;74.40;;;;;;4895138;29;20052;-84
2022/04/16 06:11:42;;;;;;;39.72;32.72;;;9.00;74.50;;;;;;4895665;29;20045;-84
2022/04/16 06:14:09;;;;;;;38.75;31.95;;;9.10;74.60;;;;;;4896533;29;20589;-83
2022/04/16 06:16:36;;;;;;;39.90;32.88;;;9.10;74.60;;;;;;4896177;29;20053;-85
2022/04/16 06:19:03;;;;;;;38.70;33.03;;;9.10;74.70;;;;;;4893938;29;20059;-83
2022/04/16 06:21:30;;;;;;;36.85;32.42;;;9.10;74.80;;;;;;4894239;29;20051;-83
2022/04/16 06:24:00;;;;;;;40.72;33.10;;;9.10;74.80;;;;;;4894171;29;20506;-85
2022/04/16 06:26:27;;;;;;;37.70;32.45;;;9.10;74.90;;;;;;4895744;29;20048;-83
2022/04/16 06:28:54;;;;;;;36.22;32.17;;;9.20;75.00;;;;;;4896017;29;20089;-83
2022/04/16 06:31:21;;;;;;;38.20;31.60;;;9.20;75.00;;;;;;4894043;29;20052;-85
2022/04/16 06:33:48;;;;;;;39.50;33.78;;;9.20;75.10;;;;;;4893986;29;20056;-84
2022/04/16 06:36:15;;;;;;;38.42;33.15;;;9.20;75.20;;;;;;4893807;29;20041;-84
2022/04/16 06:38:42;;;;;;;38.35;33.58;;;9.30;75.20;;;;;;4893985;29;20052;-84
2022/04/16 06:41:09;;;;;;;38.25;32.33;;;9.30;75.20;;;;;;4897333;29;20076;-84
2022/04/16 06:43:36;;;;;;;40.53;33.22;;;9.40;75.30;;;;;;4895892;29;20076;-84
2022/04/16 06:46:03;;;;;;;42.95;33.60;;;9.40;75.30;;;;;;4893695;29;20052;-84
2022/04/16 06:48:30;;;;;;;40.92;32.65;;;9.40;75.30;;;;;;4895210;29;20087;-83
2022/04/16 06:50:57;;;;;;;37.80;32.33;;;9.40;75.30;;;;;;4893696;29;20113;-84
2022/04/16 06:53:27;;;;;;;37.08;32.78;;;9.40;75.30;;;;;;4896294;29;20100;-84
2022/04/16 06:55:54;;;;;;;39.40;33.17;;;9.50;75.30;;;;;;4895932;29;20061;-83
2022/04/16 06:58:21;;;;;;;41.88;33.25;;;9.50;75.30;;;;;;4893131;29;20048;-84
2022/04/16 07:00:48;;;;;;;42.00;32.78;;;9.50;75.30;;;;;;4893274;29;20052;-84
2022/04/16 07:03:15;;;;;;;39.40;33.15;;;9.50;75.30;;;;;;4893470;29;20430;-84
2022/04/16 07:05:42;;;;;;;37.78;33.28;;;9.60;75.40;;;;;;4893388;29;20045;-84
2022/04/16 07:08:09;;;;;;;37.17;32.30;;;9.60;75.30;;;;;;4897614;29;20053;-83
2022/04/16 07:10:35;;;;;;;41.20;34.60;;;9.60;75.30;;;;;;4895260;29;20056;-84
2022/04/16 07:13:02;;;;;;;38.97;30.95;;;9.70;75.30;;;;;;4891546;29;20064;-85
2022/04/16 07:15:29;;;;;;;40.97;32.63;;;9.70;75.30;;;;;;4894829;29;20053;-84
2022/04/16 07:17:56;;;;;;;38.67;32.88;;;9.80;75.30;;;;;;4893154;29;20060;-86
2022/04/16 07:20:23;;;;;;;38.65;33.00;;;9.80;75.30;;;;;;4895550;29;20057;-85
2022/04/16 07:22:50;;;;;;;36.25;31.60;;;9.80;75.30;;;;;;4894837;29;20049;-83
2022/04/16 07:25:17;;;;;;;38.63;32.88;;;9.90;75.30;;;;;;4893125;29;20521;-83
2022/04/16 07:27:44;;;;;;;40.92;33.15;;;9.90;75.30;;;;;;4892631;29;20506;-83
2022/04/16 07:30:11;;;;;;;36.88;31.92;;;9.90;75.20;;;;;;4894522;29;20095;-85
2022/04/16 07:32:38;;;;;;;38.45;32.70;;;9.90;75.20;;;;;;4878610;29;20052;-84
2022/04/16 07:35:08;;;;;;;42.42;33.40;;;10.00;75.20;;;;;;4895661;29;20139;-84
2022/04/16 07:37:35;;;;;;;40.25;34.17;;;10.00;75.20;;;;;;4893410;29;20049;-86
2022/04/16 07:40:03;;;;;;;40.78;33.70;;;10.00;75.20;;;;;;4894604;29;20055;-85
2022/04/16 07:42:32;;;;;;;38.22;32.30;;;10.10;75.10;;;;;;4892509;29;20129;-86
2022/04/16 07:44:59;;;;;;;37.42;32.53;;;10.10;75.20;;;;;;4892788;29;20506;-87
2022/04/16 07:47:26;;;;;;;39.75;31.50;;;10.20;75.10;;;;;;4893320;29;20059;-86
2022/04/16 07:49:53;;;;;;;36.22;32.00;;;10.20;75.10;;;;;;4896839;29;20056;-85
2022/04/16 07:52:22;;;;;;;39.40;31.90;;;10.20;75.10;;;;;;4892866;29;20052;-85
2022/04/16 07:54:48;;;;;;;41.40;33.08;;;10.30;75.00;;;;;;4892728;29;20053;-85
2022/04/16 07:57:15;;;;;;;39.53;32.88;;;10.30;75.00;;;;;;4892212;29;20049;-85
2022/04/16 07:59:42;;;;;;;38.38;32.17;;;10.40;75.00;;;;;;4892812;29;20056;-85
2022/04/16 08:02:09;;;;;;;35.80;30.50;;;10.40;75.00;;;;;;4896915;29;20049;-85
2022/04/16 08:04:36;;;;;;;38.45;32.17;;;10.50;74.90;;;;;;4894816;29;20056;-85
2022/04/16 08:07:04;;;;;;;39.50;32.38;;;10.50;74.90;;;;;;4895053;29;20478;-84
2022/04/16 08:09:30;;;;;;;38.97;31.70;;;10.60;74.80;;;;;;4897825;29;20108;-85
2022/04/16 08:11:58;;;;;;;37.95;32.45;;;10.60;74.80;;;;;;4896056;29;20060;-84
2022/04/16 08:14:26;;;;;;;35.05;31.25;;;10.70;74.70;;;;;;4898542;29;20108;-85
2022/04/16 08:16:53;;;;;;;36.78;30.88;;;10.80;74.70;;;;;;4898916;29;20053;-83
2022/04/16 08:19:20;;;;;;;37.25;31.77;;;10.80;74.60;;;;;;4896383;29;20070;-83
2022/04/16 08:21:47;;;;;;;35.85;29.95;;;10.90;74.60;;;;;;4896288;29;20183;-83
2022/04/16 08:24:28;;;;;;;35.78;29.80;;;10.90;74.50;;;;;;4896256;29;20048;-83
2022/04/16 08:26:55;;;;;;;34.33;29.50;;;11.00;74.40;;;;;;4897624;29;20087;-83
2022/04/16 08:29:22;;;;;;;34.70;29.60;;;11.10;74.30;;;;;;4898644;29;20422;-83
2022/04/16 08:31:50;;;;;;;36.05;28.88;;;11.20;74.10;;;;;;4898187;29;20123;-84
2022/04/16 08:34:37;;;;;;;33.00;27.98;;;11.30;74.00;;;;;;4898341;29;20164;-83
2022/04/16 08:37:04;;;;;;;32.13;28.40;;;11.30;73.90;;;;;;4895781;29;20057;-84
2022/04/16 08:39:31;;;;;;;32.67;26.67;;;11.40;73.80;;;;;;4895548;29;20048;-83
2022/04/16 08:41:58;;;;;;;34.45;27.33;;;11.40;73.60;;;;;;4895020;29;20065;-83
2022/04/16 08:44:26;;;;;;;31.55;27.25;;;11.50;73.50;;;;;;4898497;29;20056;-84
2022/04/16 08:46:54;;;;;;;32.22;26.65;;;11.60;73.40;;;;;;4898377;29;20053;-83
2022/04/16 08:49:22;;;;;;;30.95;26.77;;;11.70;73.20;;;;;;4897159;29;20059;-83
2022/04/16 08:51:49;;;;;;;31.15;26.42;;;11.80;73.10;;;;;;4895726;29;20100;-83
2022/04/16 08:54:16;;;;;;;29.08;24.67;;;11.90;72.90;;;;;;4896730;29;20407;-83
2022/04/16 08:56:43;;;;;;;26.73;23.65;;;11.90;72.80;;;;;;4896059;29;20077;-83
2022/04/16 08:59:10;;;;;;;33.50;24.35;;;12.00;72.60;;;;;;4899353;29;20060;-84
2022/04/16 09:01:37;;;;;;;28.95;24.10;;;12.10;72.40;;;;;;4897485;29;20063;-85
2022/04/16 09:04:04;;;;;;;29.25;23.67;;;12.20;72.30;;;;;;4895538;29;20056;-84
2022/04/16 09:06:31;;;;;;;27.05;23.77;;;12.30;72.10;;;;;;4894657;29;20131;-84
2022/04/16 09:09:09;;;;;;;28.25;24.02;;;12.40;71.90;;;;;;4895365;29;20451;-84
2022/04/16 09:11:36;;;;;;;25.38;21.48;;;12.50;71.70;;;;;;4896023;29;20467;-85
2022/04/16 09:14:03;;;;;;;26.98;21.83;;;12.60;71.50;;;;;;4899017;29;20470;-84
2022/04/16 09:16:31;;;;;;;27.27;22.48;;;12.70;71.30;;;;;;4895210;29;20112;-84
2022/04/16 09:18:58;;;;;;;25.25;22.27;;;12.80;71.20;;;;;;4894353;29;20083;-84
2022/04/16 09:21:27;;;;;;;27.25;22.33;;;12.90;70.90;;;;;;4895361;29;20191;-83
2022/04/16 09:24:01;;;;;;;25.30;21.23;;;12.90;70.70;;;;;;4895016;29;20061;-83
2022/04/16 09:26:40;;;;;;;25.75;22.08;;;13.00;70.50;;;;;;4896769;29;20056;-83
2022/04/16 09:29:12;;;;;;;24.95;22.17;;;13.10;70.30;;;;;;4895392;29;20120;-83
2022/04/16 09:31:43;;;;;;;23.85;20.40;;;13.20;70.10;;;;;;4896420;29;20049;-83
2022/04/16 09:34:18;;;;;;;25.35;21.08;;;13.30;69.80;;;;;;4896768;29;20056;-83
2022/04/16 09:36:46;;;;;;;23.58;19.63;;;13.40;69.60;;;;;;4895059;29;20104;-84
2022/04/16 09:39:14;;;;;;;22.90;19.63;;;13.50;69.40;;;;;;4894772;29;20048;-83
2022/04/16 09:41:44;;;;;;;21.35;19.05;;;13.60;69.20;;;;;;4895699;29;20057;-83
2022/04/16 09:44:19;;;;;;;22.90;18.85;;;13.60;68.90;;;;;;4898494;29;20144;-84
2022/04/16 09:46:51;;;;;;;22.65;18.30;;;13.80;68.70;;;;;;4896998;29;20143;-84
2022/04/16 09:49:18;;;;;;;22.50;17.83;;;13.90;68.50;;;;;;4896233;29;20055;-84
2022/04/16 09:51:46;;;;;;;20.13;17.60;;;13.90;68.20;;;;;;4894936;29;20055;-83
2022/04/16 09:54:15;;;;;;;21.40;18.10;;;14.00;68.00;;;;;;4894160;29;20052;-84
2022/04/16 09:56:46;;;;;;;21.08;17.10;;;14.10;67.80;;;;;;4895029;29;20048;-84
2022/04/16 09:59:17;;;;;;;20.70;16.55;;;14.20;67.50;;;;;;4897671;29;20056;-84
2022/04/16 10:01:49;;;;;;;18.60;16.17;;;14.30;67.30;;;;;;4893338;29;20108;-83
2022/04/16 10:04:18;;;;;;;18.13;15.05;;;14.40;67.00;;;;;;4891996;29;20056;-83
2022/04/16 10:06:47;;;;;;;18.77;15.15;;;14.40;66.70;;;;;;4895677;29;20045;-84
2022/04/16 10:09:17;;;;;;;16.23;13.95;;;14.60;66.50;;;;;;4894409;29;20112;-83
2022/04/16 10:15:05;;;;;;;16.17;13.43;;;14.70;65.90;;;;;;4895020;29;20125;-83
2022/04/16 10:17:42;;;;;;;16.45;13.70;;;14.80;65.50;;;;;;4895150;29;20053;-83
2022/04/16 10:20:18;;;;;;;16.52;13.65;;;14.90;65.20;;;;;;4894884;29;20078;-83
2022/04/16 10:23:05;;;;;;;16.98;12.80;;;15.00;64.90;;;;;;4895043;29;20403;-83
2022/04/16 10:25:34;;;;;;;15.10;11.88;;;15.10;64.60;;;;;;4894143;29;20056;-83
2022/04/16 10:28:06;;;;;;;13.43;11.43;;;15.20;64.30;;;;;;4893998;29;20108;-83
2022/04/16 10:30:41;;;;;;;12.73;10.73;;;15.30;64.00;;;;;;4893918;29;20049;-84
2022/04/16 10:33:19;;;;;;;14.60;11.80;;;15.40;63.70;;;;;;4895646;29;20049;-84
2022/04/16 10:35:57;;;;;;;13.27;10.85;;;15.40;63.30;;;;;;4879752;29;20109;-83
2022/04/16 10:38:31;;;;;;;13.23;10.80;;;15.50;63.00;;;;;;4896614;29;20053;-83
2022/04/16 10:40:59;;;;;;;12.98;10.52;;;15.60;62.80;;;;;;4896775;29;20048;-83
2022/04/16 10:43:32;;;;;;;11.30;9.98;;;15.60;62.50;;;;;;4893839;29;20057;-84
2022/04/16 10:46:07;;;;;;;12.80;9.70;;;15.80;62.20;;;;;;4895499;29;20108;-83
2022/04/16 10:48:38;;;;;;;9.73;8.50;;;15.90;61.80;;;;;;4895262;29;20532;-83
2022/04/16 10:51:06;;;;;;;11.73;8.77;;;15.90;61.50;;;;;;4893589;29;20120;-83
2022/04/16 10:53:36;;;;;;;10.95;8.25;;;15.90;61.30;;;;;;4894790;29;20549;-83
2022/04/16 10:56:13;;;;;;;11.07;8.55;;;16.00;61.10;;;;;;4897256;29;20056;-84
2022/04/16 10:58:59;;;;;;;9.85;8.15;;;16.10;60.80;;;;;;4894966;29;20056;-83
2022/04/16 11:01:27;;;;;;;11.05;7.32;;;16.20;60.60;;;;;;4893482;29;20108;-84
2022/04/16 11:03:56;;;;;;;10.80;7.63;;;16.20;60.50;;;;;;4893359;29;20052;-83
2022/04/16 11:06:35;;;;;;;9.10;7.50;;;16.30;60.20;;;;;;4893020;29;20517;-84
2022/04/16 11:09:02;;;;;;;9.40;6.75;;;16.40;59.90;;;;;;4893666;29;20100;-83
2022/04/16 11:11:29;;;;;;;8.98;7.07;;;16.40;59.50;;;;;;4894993;29;20116;-83
2022/04/16 11:13:59;;;;;;;8.90;6.60;;;16.50;59.20;;;;;;4895981;29;20052;-84
2022/04/16 11:16:26;;;;;;;9.35;6.55;;;16.60;58.90;;;;;;4893510;29;20100;-84
2022/04/16 11:18:53;;;;;;;8.55;6.05;;;16.60;58.50;;;;;;4891919;29;20052;-84
2022/04/16 11:21:25;;;;;;;7.78;6.32;;;16.70;58.20;;;;;;4893261;29;20056;-83
2022/04/16 11:23:53;;;;;;;7.72;5.75;;;16.80;57.90;;;;;;4894820;29;20051;-83
2022/04/16 11:34:55;;;;;;;8.20;6.03;;;17.00;56.90;;;;;;4896266;29;20052;-83
2022/04/16 11:37:29;;;;;;;9.07;5.30;;;17.10;56.60;;;;;;4893273;29;20052;-84
2022/04/16 11:40:07;;;;;;;7.32;4.85;;;17.20;56.40;;;;;;4892836;29;20088;-83
2022/04/16 11:42:35;;;;;;;7.90;5.30;;;17.20;56.10;;;;;;4892559;29;20057;-83
2022/04/16 11:45:04;;;;;;;7.47;5.03;;;17.30;55.90;;;;;;4893048;29;20052;-83
2022/04/16 11:47:36;;;;;;;7.80;5.25;;;17.40;55.60;;;;;;4894416;29;20130;-83
2022/04/16 11:50:06;;;;;;;7.68;4.75;;;17.40;55.40;;;;;;4896130;29;20060;-84
2022/04/16 11:52:34;;;;;;;9.60;4.85;;;17.40;55.10;;;;;;4892756;29;20064;-83
2022/04/16 11:55:10;;;;;;;7.90;4.93;;;17.50;54.80;;;;;;4892871;29;20056;-83
2022/04/16 11:57:43;;;;;;;7.32;4.93;;;17.50;54.60;;;;;;4893038;29;20529;-84
2022/04/16 12:00:11;;;;;;;8.82;4.63;;;17.60;54.40;;;;;;4892973;29;20053;-83
2022/04/16 12:02:40;;;;;;;8.00;5.13;;;17.60;54.30;;;;;;4879138;29;20049;-82
2022/04/16 12:05:15;;;;;;;7.57;5.45;;;17.60;54.10;;;;;;4892871;29;20057;-83
2022/04/16 12:07:43;;;;;;;8.98;4.60;;;17.80;54.00;;;;;;4894343;29;20056;-84
2022/04/16 12:10:13;;;;;;;7.20;4.40;;;17.80;53.90;;;;;;4892763;29;20109;-83
2022/04/16 12:12:47;;;;;;;8.07;5.95;;;17.80;53.80;;;;;;4892641;29;20078;-83
2022/04/16 12:15:28;;;;;;;7.82;5.82;;;17.90;53.60;;;;;;4893160;29;20137;-83
2022/04/16 12:17:57;;;;;;;7.03;5.07;;;17.90;53.20;;;;;;4892512;29;20053;-83
2022/04/16 12:20:24;;;;;;;9.02;5.07;;;18.00;53.00;;;;;;4895163;29;20096;-84
2022/04/16 12:23:02;;;;;;;9.13;5.60;;;18.00;52.90;;;;;;4895165;29;20074;-83
2022/04/16 12:25:30;;;;;;;7.82;4.78;;;18.10;52.70;;;;;;4892758;29;20052;-83
2022/04/16 12:27:59;;;;;;;7.18;4.70;;;18.10;52.60;;;;;;4892838;29;20060;-84
2022/04/16 12:30:28;;;;;;;7.10;4.75;;;18.10;52.50;;;;;;4892685;29;20041;-83
2022/04/16 12:33:01;;;;;;;6.47;4.28;;;18.20;52.40;;;;;;4892356;29;20045;-83
2022/04/16 12:35:30;;;;;;;6.05;4.28;;;18.30;52.30;;;;;;4894573;29;20428;-83
2022/04/16 12:37:58;;;;;;;8.45;5.40;;;18.30;52.10;;;;;;4895411;29;20104;-84
2022/04/16 12:40:27;;;;;;;8.77;5.38;;;18.40;52.00;;;;;;4892486;29;20052;-84
2022/04/16 12:42:56;;;;;;;8.68;4.72;;;18.40;51.90;;;;;;4893911;29;20050;-84
2022/04/16 12:45:25;;;;;;;8.95;4.25;;;18.40;51.80;;;;;;4892422;29;20056;-84
2022/04/16 12:47:53;;;;;;;8.38;4.95;;;18.50;51.70;;;;;;4892299;29;20422;-83
2022/04/16 12:50:20;;;;;;;9.15;4.78;;;18.60;51.50;;;;;;4894877;29;20100;-83
2022/04/16 12:52:48;;;;;;;6.63;4.13;;;18.60;51.30;;;;;;4895930;29;20459;-83
2022/04/16 12:55:15;;;;;;;9.50;4.65;;;18.70;51.10;;;;;;4895690;29;20104;-83
2022/04/16 12:57:43;;;;;;;8.48;5.07;;;18.70;50.90;;;;;;4895910;29;20052;-83
2022/04/16 13:00:11;;;;;;;7.72;4.03;;;18.80;50.70;;;;;;4895733;29;20105;-83
2022/04/16 13:02:42;;;;;;;7.95;4.10;;;18.80;50.40;;;;;;4880816;29;20044;-83